Time;durP1;ratioP1;P1;durP2;ratioP2;P2;SDS_P1;SDS_P2;PMS_P1;PMS_P2;Temp;Humidity;BMP_temperature;BMP_pressure;BME280_temperature;BME280_humidity;BME280_pressure;Samples;Min_cycle;Max_cycle;Signal;HPM_P1;HPM_P2
2022/04/15 00:02:22;;;;;;;8.23;5.45;;;13.60;86.30;;;;;;4991385;28;20149;-74
2022/04/15 00:04:47;;;;;;;9.48;5.82;;;13.60;86.20;;;;;;4990910;28;20023;-75
2022/04/15 00:07:13;;;;;;;8.98;5.72;;;13.50;86.20;;;;;;4989698;28;20030;-75
2022/04/15 00:09:38;;;;;;;10.73;6.28;;;13.50;86.20;;;;;;4991096;28;20049;-75
2022/04/15 00:12:07;;;;;;;9.23;6.25;;;13.50;86.20;;;;;;4973365;28;20027;-74
2022/04/15 00:14:34;;;;;;;8.98;5.93;;;13.50;86.00;;;;;;4991085;28;20077;-74
2022/04/15 00:17:00;;;;;;;7.65;5.70;;;13.50;86.00;;;;;;4973315;28;20030;-75
2022/04/15 00:19:26;;;;;;;8.52;5.82;;;13.50;85.90;;;;;;4990589;28;20026;-73
2022/04/15 00:21:52;;;;;;;9.48;5.85;;;13.50;86.00;;;;;;4990871;28;20037;-75
2022/04/15 00:24:18;;;;;;;9.18;5.63;;;13.50;85.90;;;;;;4990519;28;20742;-74
2022/04/15 00:26:43;;;;;;;8.77;5.97;;;13.50;85.90;;;;;;4990327;28;20034;-75
2022/04/15 00:29:09;;;;;;;9.68;5.85;;;13.50;85.80;;;;;;4990327;28;20045;-75
2022/04/15 00:31:35;;;;;;;7.93;5.72;;;13.50;85.80;;;;;;4990816;28;20027;-74
2022/04/15 00:34:02;;;;;;;10.07;5.60;;;13.50;85.80;;;;;;4990635;28;20026;-74
2022/04/15 00:36:27;;;;;;;9.98;6.22;;;13.50;85.70;;;;;;4990235;28;20042;-75
2022/04/15 00:38:53;;;;;;;9.30;5.90;;;13.50;85.70;;;;;;4972878;28;20038;-76
2022/04/15 00:41:18;;;;;;;10.45;6.05;;;13.50;85.70;;;;;;4990509;28;20397;-75
2022/04/15 00:43:44;;;;;;;11.02;6.65;;;13.50;85.60;;;;;;4990367;28;20169;-76
2022/04/15 00:46:10;;;;;;;9.48;6.13;;;13.50;86.10;;;;;;4990168;28;20018;-75
2022/04/15 00:48:36;;;;;;;10.20;6.07;;;13.50;85.60;;;;;;4990258;28;20652;-74
2022/04/15 00:51:06;;;;;;;9.77;6.00;;;13.50;85.60;;;;;;4990455;28;20045;-74
2022/04/15 00:53:33;;;;;;;7.88;5.70;;;13.50;85.50;;;;;;4972860;28;20112;-74
2022/04/15 00:56:05;;;;;;;9.95;6.13;;;13.50;85.50;;;;;;4972867;28;20041;-75
2022/04/15 00:58:32;;;;;;;10.25;5.82;;;13.50;85.50;;;;;;4972895;28;20030;-73
2022/04/15 01:00:59;;;;;;;9.65;5.95;;;13.50;85.50;;;;;;4990135;28;20437;-75
2022/04/15 01:03:25;;;;;;;9.98;6.25;;;13.50;85.50;;;;;;4972517;28;20142;-76
2022/04/15 01:05:55;;;;;;;9.82;6.43;;;13.50;85.50;;;;;;4990195;28;20109;-75
2022/04/15 01:08:23;;;;;;;9.70;6.28;;;13.50;85.50;;;;;;4972417;28;20030;-75
2022/04/15 01:10:51;;;;;;;9.57;6.22;;;13.50;85.50;;;;;;4972502;28;20117;-75
2022/04/15 01:13:20;;;;;;;9.93;6.40;;;13.50;85.40;;;;;;4989870;28;20404;-74
2022/04/15 01:15:48;;;;;;;10.25;5.90;;;13.50;85.40;;;;;;4972600;28;20033;-75
2022/04/15 01:18:13;;;;;;;9.23;6.35;;;13.50;85.40;;;;;;4989492;28;20030;-74
2022/04/15 01:20:40;;;;;;;8.02;5.90;;;13.50;85.40;;;;;;4972357;28;20019;-75
2022/04/15 01:23:07;;;;;;;8.43;6.18;;;13.50;85.50;;;;;;4972474;28;20034;-75
2022/04/15 01:25:33;;;;;;;10.02;6.13;;;13.50;85.40;;;;;;4989914;28;20022;-73
2022/04/15 01:27:59;;;;;;;10.38;6.32;;;13.50;85.30;;;;;;4989333;28;20034;-75
2022/04/15 01:30:25;;;;;;;9.30;5.93;;;13.50;85.30;;;;;;4989477;28;20397;-74
2022/04/15 01:32:50;;;;;;;9.27;6.18;;;13.40;85.20;;;;;;4989519;28;20489;-75
2022/04/15 01:35:17;;;;;;;9.13;6.70;;;13.50;85.20;;;;;;4989451;28;20034;-74
2022/04/15 01:37:43;;;;;;;10.07;6.05;;;13.50;85.20;;;;;;4971828;28;20034;-75
2022/04/15 01:40:10;;;;;;;8.35;5.88;;;13.40;85.10;;;;;;4989572;28;20038;-74
2022/04/15 01:42:38;;;;;;;9.55;6.20;;;13.50;85.10;;;;;;4989555;28;20553;-75
2022/04/15 01:45:04;;;;;;;8.50;6.03;;;13.50;85.10;;;;;;4971832;28;20109;-75
2022/04/15 01:47:30;;;;;;;8.57;6.32;;;13.50;85.00;;;;;;4988879;28;20512;-74
2022/04/15 01:49:56;;;;;;;9.60;6.32;;;13.40;84.90;;;;;;4971842;28;20034;-74
2022/04/15 01:52:22;;;;;;;10.13;6.47;;;13.50;84.90;;;;;;4989583;28;20100;-75
2022/04/15 01:54:47;;;;;;;9.75;5.70;;;13.50;84.80;;;;;;4988986;28;20113;-74
2022/04/15 01:57:14;;;;;;;8.40;5.85;;;13.50;84.80;;;;;;4971618;28;20052;-75
2022/04/15 01:59:40;;;;;;;8.20;5.55;;;13.40;84.70;;;;;;4989139;28;20030;-73
2022/04/15 02:02:06;;;;;;;9.48;5.88;;;13.50;84.70;;;;;;4989270;28;20026;-75
2022/04/15 02:04:32;;;;;;;9.57;5.75;;;13.50;84.60;;;;;;4971624;28;20037;-75
2022/04/15 02:06:58;;;;;;;9.02;5.95;;;13.40;84.50;;;;;;4988544;28;20598;-76
2022/04/15 02:09:23;;;;;;;8.43;6.22;;;13.50;84.50;;;;;;4988927;28;20044;-74
2022/04/15 02:11:49;;;;;;;9.23;6.22;;;13.50;84.40;;;;;;4971954;28;20031;-74
2022/04/15 02:14:17;;;;;;;8.80;6.15;;;13.40;84.30;;;;;;4988974;28;20409;-75
2022/04/15 02:16:43;;;;;;;9.27;5.95;;;13.40;84.20;;;;;;4988819;28;20033;-75
2022/04/15 02:19:08;;;;;;;9.27;5.97;;;13.50;84.20;;;;;;4989246;28;20030;-76
2022/04/15 02:21:34;;;;;;;9.40;5.70;;;13.40;84.10;;;;;;4988477;28;20368;-75
2022/04/15 02:24:00;;;;;;;9.75;6.05;;;13.50;84.00;;;;;;4988957;28;20018;-75
2022/04/15 02:26:26;;;;;;;7.13;5.40;;;13.40;84.00;;;;;;4988608;28;20073;-74
2022/04/15 02:28:51;;;;;;;8.65;5.30;;;13.40;83.90;;;;;;4988854;28;20022;-74
2022/04/15 02:31:17;;;;;;;9.15;5.65;;;13.50;83.90;;;;;;4989065;28;20034;-75
2022/04/15 02:33:42;;;;;;;9.73;6.40;;;13.40;83.80;;;;;;4971237;28;20026;-73
2022/04/15 02:36:08;;;;;;;8.55;5.63;;;13.50;83.70;;;;;;4971124;28;20069;-75
2022/04/15 02:38:34;;;;;;;9.38;5.85;;;13.40;83.70;;;;;;4971134;28;20030;-76
2022/04/15 02:41:01;;;;;;;9.02;6.15;;;13.40;83.60;;;;;;4971152;28;20381;-75
2022/04/15 02:43:31;;;;;;;8.70;5.80;;;13.50;83.60;;;;;;4968113;28;20034;-74
2022/04/15 02:46:01;;;;;;;8.43;5.85;;;13.50;83.50;;;;;;4968999;28;20031;-74
2022/04/15 02:48:28;;;;;;;8.77;5.95;;;13.40;83.40;;;;;;4967609;28;20074;-77
2022/04/15 02:50:54;;;;;;;7.72;5.47;;;13.40;83.40;;;;;;4969535;28;20015;-74
2022/04/15 02:53:21;;;;;;;9.73;5.97;;;13.50;83.40;;;;;;4968986;28;20034;-74
2022/04/15 02:55:47;;;;;;;8.50;5.53;;;13.40;83.30;;;;;;4969500;28;20494;-75
2022/04/15 02:58:12;;;;;;;8.88;5.97;;;13.40;83.30;;;;;;4969710;28;20069;-73
2022/04/15 03:00:38;;;;;;;8.13;5.63;;;13.40;83.30;;;;;;4967529;28;20058;-73
2022/04/15 03:03:04;;;;;;;7.65;5.65;;;13.40;83.30;;;;;;4970942;28;20482;-75
2022/04/15 03:05:30;;;;;;;7.82;5.97;;;13.40;83.20;;;;;;4988147;28;20022;-76
2022/04/15 03:07:55;;;;;;;8.55;5.32;;;13.40;83.20;;;;;;4970831;28;20033;-74
2022/04/15 03:10:21;;;;;;;8.10;5.25;;;13.40;83.10;;;;;;4988430;28;20352;-75
2022/04/15 03:12:47;;;;;;;8.02;5.80;;;13.40;83.10;;;;;;4988431;28;20121;-73
2022/04/15 03:15:13;;;;;;;8.60;5.70;;;13.40;83.00;;;;;;4988519;28;20806;-74
2022/04/15 03:17:38;;;;;;;9.52;5.72;;;13.40;83.00;;;;;;4988409;28;20478;-74
2022/04/15 03:20:06;;;;;;;8.05;5.38;;;13.40;83.00;;;;;;4970838;28;20035;-77
2022/04/15 03:22:44;;;;;;;9.10;5.38;;;13.40;82.90;;;;;;4988117;28;20026;-73
2022/04/15 03:25:12;;;;;;;9.90;5.88;;;13.40;82.90;;;;;;4988556;28;20053;-75
2022/04/15 03:27:38;;;;;;;8.82;5.40;;;13.40;82.90;;;;;;4970391;28;20026;-75
2022/04/15 03:30:05;;;;;;;8.23;5.50;;;13.40;82.90;;;;;;4988044;28;20088;-74
2022/04/15 03:32:31;;;;;;;7.47;5.30;;;13.40;82.80;;;;;;4988988;28;20022;-75
2022/04/15 03:34:57;;;;;;;7.45;5.50;;;13.40;82.70;;;;;;4991633;28;20069;-76
2022/04/15 03:37:23;;;;;;;7.78;5.25;;;13.40;82.70;;;;;;4991560;28;20573;-75
2022/04/15 03:39:48;;;;;;;7.18;5.13;;;13.40;82.70;;;;;;4991505;28;20031;-77
2022/04/15 03:42:14;;;;;;;8.63;5.50;;;13.40;82.50;;;;;;4974996;28;20039;-74
2022/04/15 03:44:39;;;;;;;9.05;5.65;;;13.40;82.50;;;;;;4972306;28;20034;-73
2022/04/15 03:47:06;;;;;;;7.20;5.15;;;13.40;82.40;;;;;;4954503;28;20475;-75
2022/04/15 03:49:32;;;;;;;7.57;5.20;;;13.40;82.40;;;;;;4954707;28;20525;-76
2022/04/15 03:51:58;;;;;;;7.57;5.55;;;13.40;82.40;;;;;;4954748;28;20038;-75
2022/04/15 03:54:23;;;;;;;8.20;5.43;;;13.40;82.30;;;;;;4971730;28;20085;-76
2022/04/15 03:56:49;;;;;;;8.57;5.40;;;13.40;82.40;;;;;;4971670;28;20062;-75
2022/04/15 03:59:15;;;;;;;8.73;5.47;;;13.40;82.10;;;;;;4954640;28;20026;-75
2022/04/15 04:01:41;;;;;;;7.25;4.90;;;13.40;82.20;;;;;;4971562;28;20031;-74
2022/04/15 04:04:07;;;;;;;9.32;5.63;;;13.40;82.10;;;;;;4954520;28;20037;-74
2022/04/15 04:06:33;;;;;;;8.85;5.28;;;13.30;82.00;;;;;;4953742;28;20031;-74
2022/04/15 04:08:58;;;;;;;7.25;5.30;;;13.40;82.10;;;;;;4972047;28;20491;-75
2022/04/15 04:11:24;;;;;;;7.13;5.28;;;13.40;82.00;;;;;;4970399;28;20023;-74
2022/04/15 04:13:49;;;;;;;7.78;5.30;;;13.40;82.00;;;;;;4971856;28;20023;-75
2022/04/15 04:16:16;;;;;;;6.60;5.03;;;13.40;82.00;;;;;;4954024;28;20030;-74
2022/04/15 04:18:42;;;;;;;8.73;5.40;;;13.40;82.00;;;;;;4970239;28;20418;-75
2022/04/15 04:21:08;;;;;;;8.98;5.40;;;13.40;82.00;;;;;;4954017;28;20027;-74
2022/04/15 04:23:35;;;;;;;7.63;5.53;;;13.40;82.00;;;;;;4954247;28;20027;-75
2022/04/15 04:26:02;;;;;;;7.70;5.63;;;13.40;81.90;;;;;;4954063;28;20027;-74
2022/04/15 04:28:27;;;;;;;8.00;5.40;;;13.40;81.90;;;;;;4971035;28;20030;-75
2022/04/15 04:30:53;;;;;;;8.45;5.93;;;13.40;81.90;;;;;;4971294;28;20102;-75
2022/04/15 04:33:19;;;;;;;7.88;5.32;;;13.40;81.90;;;;;;4953999;28;20027;-75
2022/04/15 04:35:45;;;;;;;8.07;5.38;;;13.30;81.80;;;;;;4971238;28;20023;-75
2022/04/15 04:38:10;;;;;;;7.22;5.32;;;13.40;81.90;;;;;;4970747;28;20450;-74
2022/04/15 04:40:37;;;;;;;7.30;5.20;;;13.40;81.90;;;;;;4957158;28;20034;-73
2022/04/15 04:43:04;;;;;;;8.80;5.85;;;13.40;81.80;;;;;;4990703;28;20409;-75
2022/04/15 04:45:31;;;;;;;8.82;5.55;;;13.40;81.80;;;;;;4972591;28;20026;-75
2022/04/15 04:47:58;;;;;;;9.00;5.55;;;13.30;81.70;;;;;;4990251;28;20618;-74
2022/04/15 04:50:24;;;;;;;8.82;5.38;;;13.40;81.80;;;;;;4973099;28;20037;-75
2022/04/15 04:52:49;;;;;;;8.30;5.55;;;13.30;81.70;;;;;;4990217;28;20034;-75
2022/04/15 04:55:16;;;;;;;8.02;5.60;;;13.30;81.70;;;;;;4989443;28;20038;-75
2022/04/15 04:57:42;;;;;;;7.70;5.43;;;13.40;81.70;;;;;;4966094;28;20027;-73
2022/04/15 05:00:10;;;;;;;8.57;5.47;;;13.40;81.70;;;;;;4962022;28;20093;-74
2022/04/15 05:02:36;;;;;;;7.97;5.30;;;13.30;81.60;;;;;;4970191;28;20029;-75
2022/04/15 05:05:01;;;;;;;8.15;5.47;;;13.30;81.60;;;;;;4970314;28;20042;-75
2022/04/15 05:07:27;;;;;;;7.43;5.53;;;13.40;81.70;;;;;;4968986;28;20517;-74
2022/04/15 05:09:53;;;;;;;8.43;5.80;;;13.30;81.60;;;;;;4970733;28;20089;-75
2022/04/15 05:12:18;;;;;;;7.85;5.55;;;13.30;82.10;;;;;;4970429;28;20038;-73
2022/04/15 05:14:44;;;;;;;7.95;5.68;;;13.30;81.50;;;;;;4965583;28;20030;-75
2022/04/15 05:17:09;;;;;;;7.55;5.68;;;13.40;81.50;;;;;;4950696;28;20030;-74
2022/04/15 05:19:35;;;;;;;7.60;5.63;;;13.30;81.40;;;;;;4966837;28;20030;-75
2022/04/15 05:22:00;;;;;;;8.65;5.60;;;13.30;81.40;;;;;;4969232;28;20074;-77
2022/04/15 05:24:26;;;;;;;8.63;5.93;;;13.30;81.40;;;;;;4970297;28;20057;-74
2022/04/15 05:26:52;;;;;;;9.65;5.93;;;13.30;81.40;;;;;;4968942;28;20109;-74
2022/04/15 05:29:17;;;;;;;7.78;5.80;;;13.30;81.40;;;;;;4970337;28;20073;-75
2022/04/15 05:31:43;;;;;;;9.50;6.47;;;13.30;81.40;;;;;;4970237;28;20030;-76
2022/04/15 05:34:08;;;;;;;8.70;6.03;;;13.30;81.30;;;;;;4970186;28;20035;-74
2022/04/15 05:36:34;;;;;;;7.10;5.30;;;13.30;81.30;;;;;;4968620;28;20142;-75
2022/04/15 05:39:00;;;;;;;9.07;5.78;;;13.30;81.30;;;;;;4949122;29;20399;-76
2022/04/15 05:41:26;;;;;;;8.98;5.80;;;13.30;81.30;;;;;;4960783;28;20070;-74
2022/04/15 05:43:51;;;;;;;7.97;5.93;;;13.30;81.70;;;;;;4961486;28;20205;-73
2022/04/15 05:46:18;;;;;;;8.70;5.88;;;13.30;81.20;;;;;;4989207;28;20545;-75
2022/04/15 05:48:43;;;;;;;8.25;6.00;;;13.30;81.20;;;;;;4971937;28;20133;-74
2022/04/15 05:51:09;;;;;;;8.60;5.85;;;13.30;81.10;;;;;;4987830;28;20113;-74
2022/04/15 05:53:35;;;;;;;7.85;5.65;;;13.30;81.00;;;;;;4979566;28;20417;-73
2022/04/15 05:56:00;;;;;;;8.48;5.72;;;13.30;81.10;;;;;;4977680;28;20077;-75
2022/04/15 05:58:27;;;;;;;7.55;5.72;;;13.30;81.00;;;;;;4961861;28;20030;-75
2022/04/15 06:00:53;;;;;;;7.82;5.80;;;13.30;81.10;;;;;;4987316;28;20022;-75
2022/04/15 06:03:22;;;;;;;8.30;5.47;;;13.30;81.00;;;;;;4983419;28;20045;-77
2022/04/15 06:05:48;;;;;;;7.32;5.30;;;13.30;81.10;;;;;;4983568;28;20038;-74
2022/04/15 06:08:14;;;;;;;8.18;5.25;;;13.30;81.10;;;;;;4983267;28;20457;-74
2022/04/15 06:10:40;;;;;;;8.75;5.50;;;13.30;81.00;;;;;;4963447;28;20058;-74
2022/04/15 06:13:19;;;;;;;8.20;5.22;;;13.30;81.10;;;;;;4981443;28;20162;-74
2022/04/15 06:15:52;;;;;;;7.68;5.00;;;13.30;81.10;;;;;;4983975;28;20096;-76
2022/04/15 06:18:34;;;;;;;7.15;4.80;;;13.30;81.10;;;;;;4964056;28;20034;-73
2022/04/15 06:21:00;;;;;;;8.43;5.63;;;13.30;81.20;;;;;;4977568;28;20057;-74
2022/04/15 06:23:26;;;;;;;8.00;5.18;;;13.30;81.10;;;;;;4965631;28;20108;-74
2022/04/15 06:25:52;;;;;;;9.00;5.32;;;13.30;81.10;;;;;;4980461;28;20022;-74
2022/04/15 06:28:21;;;;;;;8.23;5.20;;;13.30;81.10;;;;;;4982484;28;20048;-76
2022/04/15 06:30:47;;;;;;;6.50;4.53;;;13.30;81.10;;;;;;4972412;28;20029;-75
2022/04/15 06:33:15;;;;;;;7.53;4.90;;;13.30;81.10;;;;;;4990565;28;20026;-74
2022/04/15 06:35:41;;;;;;;7.38;5.10;;;13.30;81.00;;;;;;4989509;28;20306;-76
2022/04/15 06:38:07;;;;;;;8.13;4.90;;;13.30;81.00;;;;;;4970780;28;20592;-74
2022/04/15 06:40:33;;;;;;;7.13;4.82;;;13.30;81.00;;;;;;4997416;28;20062;-74
2022/04/15 06:42:58;;;;;;;6.78;4.95;;;13.40;81.70;;;;;;4990534;28;20056;-75
2022/04/15 06:45:24;;;;;;;7.32;4.57;;;13.30;81.20;;;;;;4989481;28;20034;-78
2022/04/15 06:47:50;;;;;;;14.02;5.18;;;13.30;81.20;;;;;;4978152;28;20412;-74
2022/04/15 06:50:16;;;;;;;26.98;6.65;;;13.30;81.20;;;;;;4989666;28;20552;-74
2022/04/15 06:52:41;;;;;;;33.83;6.07;;;13.30;81.20;;;;;;4989441;28;20041;-74
2022/04/15 06:55:07;;;;;;;32.97;6.50;;;13.30;81.30;;;;;;4983469;28;20044;-76
2022/04/15 06:57:32;;;;;;;26.27;6.20;;;13.30;81.30;;;;;;4989392;28;20030;-75
2022/04/15 06:59:59;;;;;;;21.48;5.38;;;13.30;81.30;;;;;;4983133;28;20062;-74
2022/04/15 07:02:25;;;;;;;20.90;5.00;;;13.30;81.20;;;;;;4987138;28;20026;-74
2022/04/15 07:04:51;;;;;;;21.42;5.53;;;13.30;81.30;;;;;;4970726;28;20037;-75
2022/04/15 07:07:16;;;;;;;14.93;4.95;;;13.30;81.20;;;;;;4982285;28;20041;-74
2022/04/15 07:09:42;;;;;;;17.58;5.15;;;13.30;81.20;;;;;;4995230;28;20034;-73
2022/04/15 07:12:08;;;;;;;12.07;4.68;;;13.30;81.20;;;;;;4992745;28;20509;-74
2022/04/15 07:14:33;;;;;;;15.38;4.70;;;13.30;81.20;;;;;;4975584;28;20026;-73
2022/04/15 07:17:00;;;;;;;11.50;4.63;;;13.30;81.20;;;;;;4992050;28;20031;-75
2022/04/15 07:19:27;;;;;;;9.70;4.60;;;13.30;81.20;;;;;;4992961;28;20019;-75
2022/04/15 07:21:52;;;;;;;10.07;4.28;;;13.30;81.20;;;;;;4991637;28;20026;-74
2022/04/15 07:24:18;;;;;;;12.50;5.10;;;13.30;81.20;;;;;;4988747;28;20460;-74
2022/04/15 07:26:43;;;;;;;10.88;4.30;;;13.30;81.20;;;;;;4972933;28;20057;-74
2022/04/15 07:29:09;;;;;;;12.00;4.63;;;13.30;81.20;;;;;;4973027;28;20034;-73
2022/04/15 07:31:35;;;;;;;8.60;4.00;;;13.30;81.20;;;;;;4972738;28;20134;-75
2022/04/15 07:34:01;;;;;;;11.63;4.50;;;13.30;81.20;;;;;;4983446;28;20117;-74
2022/04/15 07:39:06;;;;;;;9.68;4.43;;;13.30;81.10;;;;;;4992305;28;20018;-74
2022/04/15 07:41:33;;;;;;;8.38;4.57;;;13.30;81.00;;;;;;4987191;28;20030;-74
2022/04/15 07:43:58;;;;;;;9.60;4.45;;;13.30;80.90;;;;;;4991127;28;20046;-72
2022/04/15 07:46:24;;;;;;;10.48;4.57;;;13.30;80.80;;;;;;4990927;28;20580;-74
2022/04/15 07:48:50;;;;;;;8.65;4.40;;;13.40;80.90;;;;;;4988777;28;20037;-74
2022/04/15 07:51:15;;;;;;;7.85;4.43;;;13.30;80.80;;;;;;4990182;28;20038;-73
2022/04/15 07:53:41;;;;;;;8.95;4.53;;;13.40;80.80;;;;;;4990316;28;20081;-73
2022/04/15 07:56:06;;;;;;;7.63;3.92;;;13.40;80.70;;;;;;4985346;28;20045;-72
2022/04/15 07:58:32;;;;;;;7.80;4.30;;;13.40;80.60;;;;;;4990385;28;20037;-74
2022/04/15 08:01:01;;;;;;;6.68;3.63;;;13.40;80.60;;;;;;4988165;28;20038;-72
2022/04/15 08:03:27;;;;;;;7.15;4.57;;;13.40;80.50;;;;;;4974364;28;20440;-74
2022/04/15 08:05:53;;;;;;;7.22;4.25;;;13.40;80.40;;;;;;4988974;28;20026;-74
2022/04/15 08:08:18;;;;;;;7.30;4.32;;;13.40;80.40;;;;;;4989283;28;20505;-73
2022/04/15 08:10:44;;;;;;;7.35;4.25;;;13.40;80.40;;;;;;4982590;28;20026;-74
2022/04/15 08:13:09;;;;;;;7.13;4.40;;;13.40;80.40;;;;;;4988063;28;20145;-73
2022/04/15 08:15:35;;;;;;;6.80;4.00;;;13.50;80.50;;;;;;4983638;28;20038;-74
2022/04/15 08:18:01;;;;;;;8.07;4.43;;;13.40;80.50;;;;;;4989290;28;20070;-74
2022/04/15 08:20:26;;;;;;;7.20;4.22;;;13.40;80.50;;;;;;4987400;28;20106;-74
2022/04/15 08:22:52;;;;;;;6.90;3.90;;;13.40;80.50;;;;;;4988036;28;20057;-76
2022/04/15 08:25:17;;;;;;;6.80;4.35;;;13.40;80.60;;;;;;4990439;28;20041;-75
2022/04/15 08:27:43;;;;;;;7.35;4.28;;;13.40;80.60;;;;;;4994077;28;20022;-75
2022/04/15 08:30:09;;;;;;;7.70;4.60;;;13.40;80.60;;;;;;4980752;28;20026;-74
2022/04/15 08:32:34;;;;;;;6.53;4.18;;;13.40;80.60;;;;;;4989377;28;20536;-77
2022/04/15 08:35:01;;;;;;;7.53;4.47;;;13.40;80.50;;;;;;4985704;28;20030;-74
2022/04/15 08:37:27;;;;;;;7.82;4.50;;;13.40;80.50;;;;;;4991676;28;20483;-75
2022/04/15 08:39:53;;;;;;;6.65;4.10;;;13.40;80.40;;;;;;4990381;28;20066;-75
2022/04/15 08:42:20;;;;;;;7.53;4.78;;;13.40;80.40;;;;;;4977599;28;20057;-75
2022/04/15 08:44:49;;;;;;;7.05;4.25;;;13.40;80.30;;;;;;4954285;28;20117;-75
2022/04/15 08:47:15;;;;;;;7.53;4.57;;;13.40;80.30;;;;;;4971216;28;20478;-76
2022/04/15 08:49:41;;;;;;;6.60;4.00;;;13.40;80.20;;;;;;4972483;28;20042;-75
2022/04/15 08:52:09;;;;;;;7.30;4.40;;;13.40;80.20;;;;;;4953973;28;20026;-76
2022/04/15 08:54:35;;;;;;;7.25;4.68;;;13.50;80.20;;;;;;4971379;28;20030;-76
2022/04/15 08:57:00;;;;;;;6.88;3.80;;;13.50;80.20;;;;;;4971026;28;20102;-75
2022/04/15 08:59:26;;;;;;;7.03;4.40;;;13.50;80.20;;;;;;4970825;28;20859;-75
2022/04/15 09:01:52;;;;;;;6.63;4.07;;;13.50;80.20;;;;;;4955668;28;20023;-74
2022/04/15 09:04:20;;;;;;;8.25;4.38;;;13.50;80.10;;;;;;4944651;28;20471;-75
2022/04/15 09:06:53;;;;;;;10.25;3.90;;;13.50;80.00;;;;;;4953763;28;20113;-75
2022/04/15 09:09:19;;;;;;;5.90;3.63;;;13.50;79.80;;;;;;4972211;28;20073;-75
2022/04/15 09:11:48;;;;;;;8.10;4.20;;;13.50;79.30;;;;;;4971332;28;20035;-74
2022/04/15 09:14:15;;;;;;;8.18;3.90;;;13.50;78.80;;;;;;4984418;28;20482;-73
2022/04/15 09:16:48;;;;;;;7.32;3.50;;;13.50;78.40;;;;;;4963133;28;20474;-76
2022/04/15 09:19:15;;;;;;;7.10;4.30;;;13.50;78.10;;;;;;4978032;28;20030;-75
2022/04/15 09:22:00;;;;;;;6.78;3.88;;;13.50;78.30;;;;;;4971021;28;20031;-75
2022/04/15 09:24:36;;;;;;;7.25;3.60;;;13.60;78.20;;;;;;4972371;28;20023;-76
2022/04/15 09:27:06;;;;;;;8.23;4.07;;;13.60;78.60;;;;;;4953300;28;20035;-76
2022/04/15 09:29:40;;;;;;;6.28;4.00;;;13.60;78.50;;;;;;4962189;28;20035;-73
2022/04/15 09:32:14;;;;;;;7.07;3.55;;;13.70;78.50;;;;;;4974636;28;20070;-76
2022/04/15 09:34:59;;;;;;;6.90;3.65;;;13.70;78.60;;;;;;4970059;28;20027;-77
2022/04/15 09:37:29;;;;;;;6.70;3.47;;;13.70;78.60;;;;;;4971426;28;20081;-75
2022/04/15 09:40:13;;;;;;;5.93;3.33;;;13.70;78.60;;;;;;4953798;28;20054;-75
2022/04/15 09:42:49;;;;;;;7.43;3.50;;;13.70;78.40;;;;;;4954300;28;20046;-78
2022/04/15 09:45:19;;;;;;;50.15;7.07;;;13.70;78.20;;;;;;4973605;28;21648;-79
2022/04/15 09:47:54;;;;;;;323.73;21.88;;;13.70;78.90;;;;;;4971134;28;20129;-77
2022/04/15 09:50:25;;;;;;;283.23;18.75;;;13.80;79.20;;;;;;4957715;28;20512;-77
2022/04/15 09:52:54;;;;;;;234.30;17.20;;;13.80;78.90;;;;;;4963008;28;20120;-76
2022/04/15 09:55:23;;;;;;;233.77;18.08;;;13.90;78.70;;;;;;4973346;28;20058;-79
2022/04/15 09:57:49;;;;;;;139.05;12.65;;;13.90;78.40;;;;;;4962682;28;20113;-80
2022/04/15 10:00:19;;;;;;;57.60;7.30;;;13.90;77.90;;;;;;4972147;28;20174;-76
2022/04/15 10:02:46;;;;;;;46.63;6.85;;;13.80;77.50;;;;;;4958182;28;20027;-77
2022/04/15 10:05:12;;;;;;;425.52;32.95;;;13.80;77.20;;;;;;4952109;29;20402;-76
2022/04/15 10:07:43;;;;;;;174.18;14.57;;;13.80;77.20;;;;;;4953144;29;20032;-77
2022/04/15 10:10:09;;;;;;;79.70;9.95;;;13.70;76.40;;;;;;4952821;29;20031;-77
2022/04/15 10:12:41;;;;;;;81.15;9.48;;;13.70;75.80;;;;;;4956474;28;20054;-76
2022/04/15 10:15:09;;;;;;;55.75;7.43;;;13.60;75.50;;;;;;4955277;28;20149;-78
2022/04/15 10:17:41;;;;;;;26.58;5.63;;;13.60;75.50;;;;;;4970770;28;20034;-77
2022/04/15 10:20:08;;;;;;;37.58;6.10;;;13.70;75.60;;;;;;4970887;28;20483;-76
2022/04/15 10:22:37;;;;;;;37.53;6.13;;;13.70;75.80;;;;;;4972062;28;20035;-77
2022/04/15 10:25:03;;;;;;;23.20;5.20;;;13.70;75.90;;;;;;4972559;28;20023;-77
2022/04/15 10:27:30;;;;;;;20.27;5.05;;;13.60;76.10;;;;;;4985740;28;20022;-75
2022/04/15 10:30:20;;;;;;;22.35;5.15;;;13.70;76.10;;;;;;4970521;28;20026;-77
2022/04/15 10:32:59;;;;;;;18.27;5.43;;;13.60;76.10;;;;;;4961568;28;20027;-77
2022/04/15 10:35:34;;;;;;;14.48;4.68;;;13.60;76.10;;;;;;4967791;28;20053;-77
2022/04/15 10:38:07;;;;;;;16.00;5.05;;;13.70;76.10;;;;;;4957242;28;20029;-77
2022/04/15 10:40:34;;;;;;;15.80;4.65;;;13.70;76.30;;;;;;4974701;28;20405;-78
2022/04/15 10:43:29;;;;;;;13.00;4.55;;;13.70;76.30;;;;;;4990395;28;20022;-79
2022/04/15 10:46:14;;;;;;;13.10;4.32;;;13.70;76.40;;;;;;4988737;28;20042;-79
2022/04/15 10:48:41;;;;;;;15.73;4.60;;;13.70;76.50;;;;;;4972246;28;20027;-77
2022/04/15 10:51:26;;;;;;;11.77;5.22;;;13.70;76.70;;;;;;4988710;28;20457;-77
2022/04/15 10:53:52;;;;;;;11.63;4.80;;;13.70;76.80;;;;;;4971362;28;20026;-77
2022/04/15 10:56:19;;;;;;;13.00;5.18;;;13.70;76.80;;;;;;4988759;28;20042;-78
2022/04/15 11:02:13;;;;;;;11.68;4.53;;;13.70;76.80;;;;;;4928449;29;20032;-77
2022/04/15 11:04:39;;;;;;;12.03;4.80;;;13.70;76.80;;;;;;4928662;29;20027;-77
2022/04/15 11:07:29;;;;;;;9.30;4.63;;;13.70;76.90;;;;;;4951503;28;20030;-77
2022/04/15 11:09:56;;;;;;;8.55;4.30;;;13.70;77.00;;;;;;4968315;28;20394;-77
2022/04/15 11:12:35;;;;;;;9.60;4.57;;;13.80;77.10;;;;;;4969560;28;20086;-77
2022/04/15 11:15:00;;;;;;;8.65;4.20;;;13.70;77.30;;;;;;4969256;28;20077;-77
2022/04/15 11:17:39;;;;;;;8.45;4.20;;;13.70;77.20;;;;;;4969017;28;20030;-78
2022/04/15 11:20:07;;;;;;;7.47;3.97;;;13.70;77.30;;;;;;4969297;28;20027;-77
2022/04/15 11:22:41;;;;;;;8.45;4.63;;;13.70;77.20;;;;;;4967958;28;20043;-77
2022/04/15 11:25:11;;;;;;;10.40;4.30;;;13.70;77.30;;;;;;4967367;28;20023;-77
2022/04/15 11:27:39;;;;;;;7.50;4.18;;;13.80;77.30;;;;;;4968057;28;20023;-78
2022/04/15 11:30:17;;;;;;;8.77;4.60;;;13.70;77.20;;;;;;4967166;28;20027;-77
2022/04/15 11:32:54;;;;;;;7.50;4.20;;;13.70;77.30;;;;;;4967235;28;20034;-77
2022/04/15 11:35:28;;;;;;;7.28;4.15;;;13.70;77.40;;;;;;4982183;28;20044;-77
2022/04/15 11:38:03;;;;;;;9.20;4.40;;;13.70;77.40;;;;;;4986551;28;20336;-76
2022/04/15 11:40:30;;;;;;;8.98;4.15;;;13.70;77.40;;;;;;4990271;28;20077;-78
2022/04/15 11:42:58;;;;;;;7.47;4.05;;;13.70;77.30;;;;;;4989501;28;20064;-77
2022/04/15 11:45:35;;;;;;;8.07;4.50;;;13.70;77.40;;;;;;5007516;28;20033;-77
2022/04/15 11:48:17;;;;;;;6.85;3.80;;;13.70;77.50;;;;;;5006998;28;20036;-78
2022/04/15 11:50:43;;;;;;;6.75;4.20;;;13.70;77.40;;;;;;4989804;28;20026;-76
2022/04/15 11:53:09;;;;;;;7.50;3.90;;;13.70;77.40;;;;;;4989652;28;20026;-77
2022/04/15 11:55:53;;;;;;;7.43;4.20;;;13.70;77.30;;;;;;5009812;28;20429;-78
2022/04/15 11:58:20;;;;;;;6.47;3.90;;;13.70;77.30;;;;;;4992654;28;20030;-78
2022/04/15 12:00:56;;;;;;;7.22;4.00;;;13.70;77.30;;;;;;5010607;28;20136;-78
2022/04/15 12:03:22;;;;;;;6.47;4.00;;;13.60;77.30;;;;;;4993119;28;20083;-76
2022/04/15 12:05:49;;;;;;;6.40;4.00;;;13.60;77.30;;;;;;5010565;28;20588;-77
2022/04/15 12:08:16;;;;;;;7.55;4.30;;;13.70;77.40;;;;;;4992903;28;20168;-77
2022/04/15 12:10:44;;;;;;;7.45;3.97;;;13.60;77.40;;;;;;4992912;28;20041;-77
2022/04/15 12:13:10;;;;;;;8.02;4.35;;;13.70;77.50;;;;;;5009178;28;20481;-77
2022/04/15 12:15:35;;;;;;;7.47;4.07;;;13.60;77.40;;;;;;5010160;28;20049;-77
2022/04/15 12:18:03;;;;;;;8.25;3.95;;;13.50;77.40;;;;;;5009942;28;20041;-77
2022/04/15 12:20:29;;;;;;;5.93;3.88;;;13.60;77.40;;;;;;5010148;28;20113;-78
2022/04/15 12:22:59;;;;;;;6.22;3.95;;;13.70;77.50;;;;;;4992880;28;20037;-77
2022/04/15 12:25:26;;;;;;;5.57;3.72;;;13.60;77.40;;;;;;5010465;28;20025;-78
2022/04/15 12:27:53;;;;;;;6.63;3.78;;;13.70;77.50;;;;;;5010078;28;20033;-77
2022/04/15 12:30:43;;;;;;;6.18;3.67;;;13.70;77.50;;;;;;5010076;28;20550;-78
2022/04/15 12:33:12;;;;;;;7.53;3.83;;;13.70;77.60;;;;;;5008875;28;20081;-79
2022/04/15 12:35:56;;;;;;;6.97;4.28;;;13.60;77.60;;;;;;5010098;28;20033;-77
2022/04/15 12:38:22;;;;;;;6.97;4.03;;;13.70;77.50;;;;;;5009526;28;20942;-77
2022/04/15 12:40:47;;;;;;;7.18;4.00;;;13.70;77.60;;;;;;4992032;28;20125;-78
2022/04/15 12:43:13;;;;;;;7.72;3.97;;;13.60;77.50;;;;;;5009769;28;20057;-77
2022/04/15 12:45:50;;;;;;;6.30;3.75;;;13.60;77.60;;;;;;5009829;28;20060;-77
2022/04/15 12:48:15;;;;;;;7.43;4.25;;;13.60;77.60;;;;;;5008220;28;20025;-76
2022/04/15 12:50:45;;;;;;;6.50;4.05;;;13.60;77.60;;;;;;5010367;28;20033;-78
2022/04/15 12:53:22;;;;;;;6.65;3.58;;;13.60;77.60;;;;;;5009726;28;20489;-76
2022/04/15 12:55:49;;;;;;;7.15;3.70;;;13.60;77.50;;;;;;5009579;28;20176;-77